Stallovarre — LHBG — position and weather

sailwx.info

Track history (hours):
 
Tides and Currents Weather Stations Pressure Air Temp Water Temp Dewpoint Dewpoint Depression Visibility Wind Speed Wind Dir Waves Ship Positions

Stallovarre

Last reported at 2017-Dec-15 10:49 UTC. Time now 2017-Dec-17 21:29 UTC.
Position N 58°59' E 005°44'.

Length 54 m.

MMSI: 257374400.

Date/timePositionNaut miles runAvg speedWind from/ knotsBaromVisibWave heightAir tempDewpointWater temp
2017-Dec-15 10:49N 58°59' E 005°44'0 0.0
2017-Dec-15 10:30N 58°59' E 005°44'0 0.7
2017-Dec-15 10:00N 58°58' E 005°44'0 0.0
2017-Dec-15 09:30N 58°58' E 005°44'0 0.8
2017-Dec-15 09:00N 58°59' E 005°44'  
2017-Dec-11 10:45N 58°59' E 005°44'0 0.9
2017-Dec-11 10:30N 58°58' E 005°44'4 8.9
2017-Dec-11 10:00N 59°02' E 005°50'612.4
2017-Dec-11 09:30N 59°08' E 005°53'3 6.4
2017-Dec-11 09:00N 59°11' E 005°54'3 6.6
2017-Dec-11 08:30N 59°14' E 005°56'2 5.1
2017-Dec-11 08:00N 59°13' E 005°52'0 0.2
2017-Dec-11 07:30N 59°13' E 005°52'2 4.0
2017-Dec-11 07:00N 59°14' E 005°55'2 4.8
2017-Dec-11 06:29N 59°12' E 005°55'4 7.3
2017-Dec-11 06:00N 59°08' E 005°54'4 8.3
2017-Dec-11 05:30N 59°12' E 005°55'2 4.4
2017-Dec-11 05:00N 59°15' E 005°54'2 3.2
2017-Dec-11 04:30N 59°14' E 005°51'0 0.0
2017-Dec-11 04:00N 59°14' E 005°51'0 0.0
2017-Dec-11 03:30N 59°14' E 005°51'0 0.0
2017-Dec-11 03:00N 59°14' E 005°51'0 0.0
2017-Dec-11 02:30N 59°14' E 005°51'0 0.0
2017-Dec-11 02:00N 59°14' E 005°51'0 0.0
2017-Dec-11 01:30N 59°14' E 005°51'0 0.0
2017-Dec-11 01:00N 59°14' E 005°51'0 0.0
2017-Dec-11 00:30N 59°14' E 005°51'0 0.0
2017-Dec-11 00:00N 59°14' E 005°51'0 0.0
2017-Dec-10 23:30N 59°14' E 005°51'2 4.2
2017-Dec-10 23:01N 59°14' E 005°55'4 7.4
2017-Dec-10 22:31N 59°10' E 005°53'2 3.1
2017-Dec-10 22:00N 59°09' E 005°54'4 7.6
2017-Dec-10 21:30N 59°12' E 005°55'1 2.1
2017-Dec-10 21:01N 59°13' E 005°54'2 3.5
2017-Dec-10 20:30N 59°12' E 005°53'1 2.8
2017-Dec-10 20:00N 59°12' E 005°56'2 4.0
2017-Dec-10 19:30N 59°14' E 005°52'3 5.2
2017-Dec-10 19:00N 59°16' E 005°53'4 8.3
2017-Dec-10 18:30N 59°20' E 005°52'3 6.7
2017-Dec-10 18:00N 59°21' E 005°59'1 1.3
2017-Dec-10 17:30N 59°20' E 005°58'3 5.5
2017-Dec-10 16:59N 59°20' E 005°52'5 9.1
2017-Dec-10 16:30N 59°16' E 005°54'2 4.4
2017-Dec-10 16:00N 59°14' E 005°54'1 2.6
2017-Dec-10 15:30N 59°12' E 005°54'4 8.0
2017-Dec-10 15:00N 59°08' E 005°54'4 8.5
2017-Dec-10 14:29N 59°12' E 005°52'3 5.3
2017-Dec-10 14:00N 59°14' E 005°56'3 6.7
2017-Dec-10 13:30N 59°11' E 005°54'2 4.2
2017-Dec-10 13:00N 59°09' E 005°53'5 9.4
2017-Dec-10 12:30N 59°14' E 005°54'1 2.3
2017-Dec-10 12:00N 59°14' E 005°52'2 4.5
2017-Dec-10 11:30N 59°12' E 005°56'3 5.6
2017-Dec-10 11:00N 59°10' E 005°53'0 0.8
2017-Dec-10 10:30N 59°10' E 005°53'4 8.2
2017-Dec-10 10:00N 59°14' E 005°56'2 4.6
2017-Dec-10 09:30N 59°14' E 005°52'4 6.9
2017-Dec-10 09:00N 59°10' E 005°53'3 6.7
2017-Dec-10 08:29N 59°14' E 005°51'3 5.2
2017-Dec-10 08:00N 59°12' E 005°56'3 5.3
2017-Dec-10 07:30N 59°10' E 005°53'2 4.4
2017-Dec-10 07:00N 59°08' E 005°52'713.7
2017-Dec-10 06:30N 59°01' E 005°50'4 7.6
2017-Dec-10 06:00N 58°59' E 005°44'0 0.0
2017-Dec-10 05:26N 58°59' E 005°44'  
Track history (hours):
 
Tides and Currents Weather Stations Pressure Air Temp Water Temp Dewpoint Dewpoint Depression Visibility Wind Speed Wind Dir Waves Ship Positions

Stallovarre

Last reported at 2017-Dec-15 10:49 UTC. Time now 2017-Dec-17 21:29 UTC.
Position N 58°59' E 005°44'.

Length 54 m.

MMSI: 257374400.

Date/timePositionNaut miles runAvg speedWind from/ knotsBaromVisibWave heightAir tempDewpointWater temp
2017-Dec-15 10:49N 58°59' E 005°44'0 0.0
2017-Dec-15 10:30N 58°59' E 005°44'0 0.7
2017-Dec-15 10:00N 58°58' E 005°44'0 0.0
2017-Dec-15 09:30N 58°58' E 005°44'0 0.8
2017-Dec-15 09:00N 58°59' E 005°44'  
2017-Dec-11 10:45N 58°59' E 005°44'0 0.9
2017-Dec-11 10:30N 58°58' E 005°44'4 8.9
2017-Dec-11 10:00N 59°02' E 005°50'612.4
2017-Dec-11 09:30N 59°08' E 005°53'3 6.4
2017-Dec-11 09:00N 59°11' E 005°54'3 6.6
2017-Dec-11 08:30N 59°14' E 005°56'2 5.1
2017-Dec-11 08:00N 59°13' E 005°52'0 0.2
2017-Dec-11 07:30N 59°13' E 005°52'2 4.0
2017-Dec-11 07:00N 59°14' E 005°55'2 4.8
2017-Dec-11 06:29N 59°12' E 005°55'4 7.3
2017-Dec-11 06:00N 59°08' E 005°54'4 8.3
2017-Dec-11 05:30N 59°12' E 005°55'2 4.4
2017-Dec-11 05:00N 59°15' E 005°54'2 3.2
2017-Dec-11 04:30N 59°14' E 005°51'0 0.0
2017-Dec-11 04:00N 59°14' E 005°51'0 0.0
2017-Dec-11 03:30N 59°14' E 005°51'0 0.0
2017-Dec-11 03:00N 59°14' E 005°51'0 0.0
2017-Dec-11 02:30N 59°14' E 005°51'0 0.0
2017-Dec-11 02:00N 59°14' E 005°51'0 0.0
2017-Dec-11 01:30N 59°14' E 005°51'0 0.0
2017-Dec-11 01:00N 59°14' E 005°51'0 0.0
2017-Dec-11 00:30N 59°14' E 005°51'0 0.0
2017-Dec-11 00:00N 59°14' E 005°51'0 0.0
2017-Dec-10 23:30N 59°14' E 005°51'2 4.2
2017-Dec-10 23:01N 59°14' E 005°55'4 7.4
2017-Dec-10 22:31N 59°10' E 005°53'2 3.1
2017-Dec-10 22:00N 59°09' E 005°54'4 7.6
2017-Dec-10 21:30N 59°12' E 005°55'1 2.1
2017-Dec-10 21:01N 59°13' E 005°54'2 3.5
2017-Dec-10 20:30N 59°12' E 005°53'1 2.8
2017-Dec-10 20:00N 59°12' E 005°56'2 4.0
2017-Dec-10 19:30N 59°14' E 005°52'3 5.2
2017-Dec-10 19:00N 59°16' E 005°53'4 8.3
2017-Dec-10 18:30N 59°20' E 005°52'3 6.7
2017-Dec-10 18:00N 59°21' E 005°59'1 1.3
2017-Dec-10 17:30N 59°20' E 005°58'3 5.5
2017-Dec-10 16:59N 59°20' E 005°52'5 9.1
2017-Dec-10 16:30N 59°16' E 005°54'2 4.4
2017-Dec-10 16:00N 59°14' E 005°54'1 2.6
2017-Dec-10 15:30N 59°12' E 005°54'4 8.0
2017-Dec-10 15:00N 59°08' E 005°54'4 8.5
2017-Dec-10 14:29N 59°12' E 005°52'3 5.3
2017-Dec-10 14:00N 59°14' E 005°56'3 6.7
2017-Dec-10 13:30N 59°11' E 005°54'2 4.2
2017-Dec-10 13:00N 59°09' E 005°53'5 9.4
2017-Dec-10 12:30N 59°14' E 005°54'1 2.3
2017-Dec-10 12:00N 59°14' E 005°52'2 4.5
2017-Dec-10 11:30N 59°12' E 005°56'3 5.6
2017-Dec-10 11:00N 59°10' E 005°53'0 0.8
2017-Dec-10 10:30N 59°10' E 005°53'4 8.2
2017-Dec-10 10:00N 59°14' E 005°56'2 4.6
2017-Dec-10 09:30N 59°14' E 005°52'4 6.9
2017-Dec-10 09:00N 59°10' E 005°53'3 6.7
2017-Dec-10 08:29N 59°14' E 005°51'3 5.2
2017-Dec-10 08:00N 59°12' E 005°56'3 5.3
2017-Dec-10 07:30N 59°10' E 005°53'2 4.4
2017-Dec-10 07:00N 59°08' E 005°52'713.7
2017-Dec-10 06:30N 59°01' E 005°50'4 7.6
2017-Dec-10 06:00N 58°59' E 005°44'0 0.0
2017-Dec-10 05:26N 58°59' E 005°44'  

Dump ship's entire track history